createdAt,value
2018-07-25T00:02:23.295Z,14.60
2018-07-25T00:04:51.512Z,15.20
2018-07-25T00:07:19.712Z,15.13
2018-07-25T00:09:47.956Z,15.37
2018-07-25T00:12:16.188Z,14.90
2018-07-25T00:14:44.528Z,15.47
2018-07-25T00:17:12.712Z,14.70
2018-07-25T00:19:40.944Z,15.57
2018-07-25T00:22:09.188Z,15.33
2018-07-25T00:24:37.685Z,16.23
2018-07-25T00:27:05.905Z,14.60
2018-07-25T00:29:34.131Z,15.47
2018-07-25T00:32:02.083Z,15.40
2018-07-25T00:34:30.314Z,16.83
2018-07-25T00:36:58.596Z,15.53
2018-07-25T00:39:26.535Z,16.70
2018-07-25T00:41:54.740Z,16.30
2018-07-25T00:44:22.960Z,15.53
2018-07-25T00:46:51.250Z,16.43
2018-07-25T00:49:19.442Z,15.13
2018-07-25T00:51:47.655Z,14.90
2018-07-25T00:54:15.899Z,14.77
2018-07-25T00:56:44.108Z,14.70
2018-07-25T00:59:12.335Z,15.60
2018-07-25T01:01:40.552Z,14.60
2018-07-25T01:04:08.784Z,14.97
2018-07-25T01:06:37.011Z,14.33
2018-07-25T01:09:07.631Z,14.87
2018-07-25T01:11:35.868Z,15.50
2018-07-25T01:14:04.076Z,15.93
2018-07-25T01:16:32.264Z,15.57
2018-07-25T01:19:01.122Z,15.13
2018-07-25T01:21:29.452Z,15.30
2018-07-25T01:23:57.390Z,15.37
2018-07-25T01:26:25.606Z,17.23
2018-07-25T01:28:53.860Z,15.87
2018-07-25T01:31:22.088Z,14.97
2018-07-25T01:33:50.287Z,14.10
2018-07-25T01:36:18.519Z,14.03
2018-07-25T01:38:46.750Z,14.83
2018-07-25T01:41:14.968Z,14.30
2018-07-25T01:43:43.184Z,14.97
2018-07-25T01:46:11.402Z,14.37
2018-07-25T01:48:39.343Z,14.77
2018-07-25T01:51:07.588Z,13.80
2018-07-25T01:53:35.788Z,15.23
2018-07-25T01:56:04.000Z,14.63
2018-07-25T01:58:32.243Z,16.00
2018-07-25T02:01:00.481Z,17.30
2018-07-25T02:03:28.635Z,15.53
2018-07-25T02:05:56.940Z,15.77
2018-07-25T02:08:25.151Z,17.27
2018-07-25T02:10:53.384Z,17.53
2018-07-25T02:13:21.339Z,18.47
2018-07-25T02:15:49.327Z,17.53
2018-07-25T02:18:17.319Z,17.53
2018-07-25T02:20:45.513Z,17.87
2018-07-25T02:23:13.747Z,17.40
2018-07-25T02:25:41.979Z,17.57
2018-07-25T02:28:10.209Z,17.40
2018-07-25T02:30:38.409Z,17.10
2018-07-25T02:33:06.800Z,17.63
2018-07-25T02:35:35.004Z,17.43
2018-07-25T02:38:03.231Z,18.03
2018-07-25T02:40:31.444Z,18.30
2018-07-25T02:42:59.764Z,18.03
2018-07-25T02:45:32.240Z,18.10
2018-07-25T02:48:00.461Z,18.03
2018-07-25T02:50:28.428Z,17.57
2018-07-25T02:52:56.646Z,18.60
2018-07-25T02:55:24.877Z,18.13
2018-07-25T02:57:53.077Z,17.90
2018-07-25T03:00:21.300Z,17.37
2018-07-25T03:05:24.037Z,17.77
2018-07-25T03:07:52.259Z,18.63
2018-07-25T03:10:20.455Z,19.47
2018-07-25T03:12:48.724Z,20.73
2018-07-25T03:15:16.925Z,19.73
2018-07-25T03:17:45.195Z,20.33
2018-07-25T03:20:13.525Z,20.70
2018-07-25T03:22:42.012Z,20.97
2018-07-25T03:25:10.320Z,20.20
2018-07-25T03:27:38.559Z,20.43
2018-07-25T03:30:07.114Z,20.50
2018-07-25T03:32:35.108Z,20.23
2018-07-25T03:35:03.365Z,19.40
2018-07-25T03:37:31.620Z,19.33
2018-07-25T03:39:59.843Z,21.63
2018-07-25T03:42:28.035Z,21.40
2018-07-25T03:44:56.242Z,20.90
2018-07-25T03:47:24.504Z,20.17
2018-07-25T03:49:52.762Z,20.07
2018-07-25T03:52:20.948Z,19.93
2018-07-25T03:54:49.189Z,19.30
2018-07-25T03:57:17.411Z,20.00
2018-07-25T03:59:45.643Z,19.47
2018-07-25T04:02:13.849Z,18.60
2018-07-25T04:04:42.072Z,16.23
2018-07-25T04:07:10.272Z,16.23
2018-07-25T04:09:38.490Z,16.40
2018-07-25T04:12:06.736Z,16.90
2018-07-25T04:14:34.948Z,15.43
2018-07-25T04:17:03.164Z,17.10
2018-07-25T04:19:31.378Z,15.93
2018-07-25T04:21:59.605Z,16.87
2018-07-25T04:24:27.873Z,16.60
2018-07-25T04:26:56.065Z,15.47
2018-07-25T04:29:24.280Z,16.50
2018-07-25T04:31:52.487Z,17.43
2018-07-25T04:34:20.679Z,18.60
2018-07-25T04:36:49.589Z,17.43
2018-07-25T04:39:17.812Z,17.90
2018-07-25T04:41:46.668Z,17.37
2018-07-25T04:44:14.892Z,18.30
2018-07-25T04:46:43.158Z,16.70
2018-07-25T04:49:11.403Z,18.13
2018-07-25T04:51:39.685Z,17.33
2018-07-25T04:54:08.481Z,18.37
2018-07-25T04:56:36.787Z,17.03
2018-07-25T04:59:05.044Z,17.60
2018-07-25T05:01:33.261Z,18.50
2018-07-25T05:04:01.517Z,18.10
2018-07-25T05:06:29.725Z,17.73
2018-07-25T05:08:57.944Z,18.20
2018-07-25T05:11:26.152Z,19.00
2018-07-25T05:13:54.397Z,18.57
2018-07-25T05:16:22.604Z,19.97
2018-07-25T05:18:50.857Z,20.30
2018-07-25T05:21:19.072Z,19.17
2018-07-25T05:23:47.308Z,17.93
2018-07-25T05:26:15.536Z,19.27
2018-07-25T05:28:43.749Z,18.97
2018-07-25T05:31:11.973Z,19.37
2018-07-25T05:33:40.212Z,19.23
2018-07-25T05:36:08.437Z,18.97
2018-07-25T05:38:36.638Z,17.33
2018-07-25T05:41:04.894Z,17.43
2018-07-25T05:43:33.103Z,17.67
2018-07-25T05:46:01.289Z,17.53
2018-07-25T05:48:29.658Z,17.80
2018-07-25T05:50:57.865Z,16.90
2018-07-25T05:53:26.232Z,16.10
2018-07-25T05:55:54.472Z,16.00
2018-07-25T05:58:22.885Z,16.57
2018-07-25T06:00:51.135Z,17.57
2018-07-25T06:03:19.390Z,17.03
2018-07-25T06:05:47.612Z,17.00
2018-07-25T06:08:15.928Z,17.37
2018-07-25T06:10:44.156Z,16.33
2018-07-25T06:13:12.408Z,15.97
2018-07-25T06:15:40.626Z,16.10
2018-07-25T06:18:08.860Z,15.33
2018-07-25T06:20:37.138Z,15.20
2018-07-25T06:23:05.436Z,14.87
2018-07-25T06:25:33.697Z,14.80
2018-07-25T06:28:01.915Z,14.80
2018-07-25T06:30:30.130Z,14.00
2018-07-25T06:32:58.452Z,14.57
2018-07-25T06:35:27.240Z,13.87
2018-07-25T06:37:55.593Z,13.67
2018-07-25T06:40:23.919Z,12.70
2018-07-25T06:42:52.147Z,12.53
2018-07-25T06:45:20.347Z,13.50
2018-07-25T06:47:48.575Z,12.37
2018-07-25T06:50:16.785Z,11.40
2018-07-25T06:52:45.024Z,11.60
2018-07-25T06:55:13.247Z,10.67
2018-07-25T06:57:41.484Z,10.57
2018-07-25T07:00:09.680Z,10.33
2018-07-25T07:02:37.919Z,10.07
2018-07-25T07:05:06.198Z,10.13
2018-07-25T07:07:34.420Z,10.83
2018-07-25T07:10:02.644Z,10.20
2018-07-25T07:12:30.868Z,10.43
2018-07-25T07:14:59.107Z,10.27
2018-07-25T07:17:27.368Z,9.87
2018-07-25T07:19:55.544Z,10.00
2018-07-25T07:22:23.741Z,8.50
2018-07-25T07:24:51.960Z,8.27
2018-07-25T07:27:20.187Z,8.80
2018-07-25T07:29:48.389Z,9.03
2018-07-25T07:32:16.625Z,8.40
2018-07-25T07:34:44.884Z,8.33
2018-07-25T07:37:13.089Z,8.40
2018-07-25T07:39:41.280Z,8.67
2018-07-25T07:42:09.540Z,8.43
2018-07-25T07:44:37.838Z,7.97
2018-07-25T07:47:06.054Z,8.00
2018-07-25T07:49:34.254Z,7.73
2018-07-25T07:52:02.472Z,8.00
2018-07-25T07:54:30.708Z,7.13
2018-07-25T07:56:59.212Z,7.43
2018-07-25T07:59:27.464Z,6.83
2018-07-25T08:01:55.620Z,6.63
2018-07-25T08:04:23.912Z,7.10
2018-07-25T08:06:52.161Z,6.70
2018-07-25T08:09:20.404Z,6.13
2018-07-25T08:11:48.624Z,6.63
2018-07-25T08:14:16.824Z,6.57
2018-07-25T08:16:45.004Z,6.10
2018-07-25T08:19:13.217Z,6.90
2018-07-25T08:21:41.432Z,6.17
2018-07-25T08:24:09.657Z,6.10
2018-07-25T08:26:38.052Z,5.67
2018-07-25T08:29:06.287Z,5.87
2018-07-25T08:31:34.483Z,5.93
2018-07-25T08:34:02.707Z,6.20
2018-07-25T08:36:34.028Z,5.90
2018-07-25T08:39:03.452Z,6.13
2018-07-25T08:41:31.669Z,6.83
2018-07-25T08:43:59.839Z,6.20
2018-07-25T08:46:28.081Z,5.93
2018-07-25T08:48:56.275Z,6.53
2018-07-25T08:51:25.299Z,5.77
2018-07-25T08:53:53.531Z,6.40
2018-07-25T08:56:21.729Z,6.40
2018-07-25T08:58:49.707Z,6.17
2018-07-25T09:01:17.932Z,6.63
2018-07-25T09:03:46.165Z,6.23
2018-07-25T09:06:14.412Z,6.30
2018-07-25T09:08:42.952Z,6.40
2018-07-25T09:11:11.196Z,6.57
2018-07-25T09:13:40.260Z,5.70
2018-07-25T09:16:08.456Z,5.80
2018-07-25T09:18:36.672Z,6.10
2018-07-25T09:21:05.084Z,6.20
2018-07-25T09:23:33.308Z,5.80
2018-07-25T09:26:01.580Z,5.80
2018-07-25T09:28:29.935Z,5.57
2018-07-25T09:30:58.136Z,5.90
2018-07-25T09:33:26.404Z,6.00
2018-07-25T09:35:54.609Z,5.80
2018-07-25T09:38:22.872Z,5.43
2018-07-25T09:40:51.103Z,5.57
2018-07-25T09:43:20.972Z,6.37
2018-07-25T09:45:48.961Z,8.10
2018-07-25T09:48:16.895Z,7.83
2018-07-25T09:50:45.190Z,9.83
2018-07-25T09:53:13.478Z,7.30
2018-07-25T09:55:41.628Z,6.50
2018-07-25T09:58:09.840Z,5.87
2018-07-25T10:00:43.532Z,7.77
2018-07-25T10:03:11.748Z,5.80
2018-07-25T10:05:39.951Z,5.10
2018-07-25T10:08:08.174Z,6.17
2018-07-25T10:10:36.403Z,8.03
2018-07-25T10:13:04.931Z,9.17
2018-07-25T10:15:33.200Z,6.63
2018-07-25T10:18:01.388Z,5.90
2018-07-25T10:20:29.596Z,6.40
2018-07-25T10:22:57.811Z,8.00
2018-07-25T10:25:26.060Z,5.83
2018-07-25T10:27:54.289Z,6.13
2018-07-25T10:30:22.783Z,5.60
2018-07-25T10:32:51.021Z,5.10
2018-07-25T10:35:19.181Z,5.43
2018-07-25T10:37:47.402Z,5.17
2018-07-25T10:40:15.656Z,7.93
2018-07-25T10:42:43.860Z,5.77
2018-07-25T10:45:12.085Z,5.80
2018-07-25T10:47:40.661Z,5.40
2018-07-25T10:50:09.371Z,5.10
2018-07-25T10:52:37.392Z,5.75
2018-07-25T10:55:05.784Z,5.42
2018-07-25T10:57:34.743Z,5.90
2018-07-25T11:00:03.076Z,5.37
2018-07-25T11:02:31.330Z,4.67
2018-07-25T11:04:59.567Z,5.17
2018-07-25T11:07:27.890Z,4.70
2018-07-25T11:09:56.125Z,4.83
2018-07-25T11:12:24.316Z,4.73
2018-07-25T11:14:53.466Z,4.45
2018-07-25T11:17:21.660Z,5.53
2018-07-25T11:19:49.887Z,5.08
2018-07-25T11:22:18.085Z,4.78
2018-07-25T11:24:46.308Z,4.62
2018-07-25T11:27:14.518Z,4.65
2018-07-25T11:29:42.723Z,4.42
2018-07-25T11:32:10.969Z,4.33
2018-07-25T11:34:39.184Z,4.08
2018-07-25T11:37:07.408Z,4.80
2018-07-25T11:39:35.620Z,5.15
2018-07-25T11:42:03.825Z,4.92
2018-07-25T11:44:32.089Z,4.70
2018-07-25T11:47:00.282Z,4.40
2018-07-25T11:49:28.500Z,4.35
2018-07-25T11:51:56.711Z,4.08
2018-07-25T11:54:24.937Z,3.92
2018-07-25T11:56:53.142Z,3.80
2018-07-25T11:59:21.429Z,3.87
2018-07-25T12:01:49.720Z,3.98
2018-07-25T12:04:17.881Z,3.72
2018-07-25T12:06:46.090Z,3.70
2018-07-25T12:09:14.677Z,3.80
2018-07-25T12:11:46.988Z,4.22
2018-07-25T12:14:16.700Z,4.15
2018-07-25T12:16:44.945Z,3.58
2018-07-25T12:19:13.272Z,3.95
2018-07-25T12:21:41.526Z,3.92
2018-07-25T12:24:09.749Z,3.42
2018-07-25T12:26:38.007Z,3.87
2018-07-25T12:29:06.208Z,4.00
2018-07-25T12:31:34.396Z,3.72
2018-07-25T12:34:02.615Z,3.67
2018-07-25T12:36:30.792Z,3.50
2018-07-25T12:38:59.324Z,4.20
2018-07-25T12:41:27.616Z,4.20
2018-07-25T12:43:55.820Z,3.62
2018-07-25T12:46:24.045Z,4.00
2018-07-25T12:48:52.307Z,3.90
2018-07-25T12:51:20.508Z,3.37
2018-07-25T12:53:48.761Z,3.45
2018-07-25T12:56:16.956Z,3.35
2018-07-25T12:58:45.172Z,2.95
2018-07-25T13:01:13.395Z,2.77
2018-07-25T13:03:41.593Z,2.87
2018-07-25T13:06:09.840Z,2.80
2018-07-25T13:08:38.029Z,3.15
2018-07-25T13:11:06.269Z,3.67
2018-07-25T13:13:34.506Z,3.10
2018-07-25T13:16:02.702Z,3.50
2018-07-25T13:18:30.934Z,3.35
2018-07-25T13:20:59.128Z,3.17
2018-07-25T13:23:27.327Z,3.22
2018-07-25T13:25:55.789Z,3.60
2018-07-25T13:28:24.075Z,3.05
2018-07-25T13:30:52.212Z,3.60
2018-07-25T13:33:20.428Z,3.50
2018-07-25T13:35:48.376Z,3.80
2018-07-25T13:38:16.749Z,3.60
2018-07-25T13:40:45.076Z,3.30
2018-07-25T13:43:13.293Z,4.00
2018-07-25T13:45:41.814Z,3.67
2018-07-25T13:48:10.797Z,4.00
2018-07-25T13:50:39.004Z,4.03
2018-07-25T13:53:07.345Z,3.87
2018-07-25T13:55:35.664Z,4.40
2018-07-25T13:58:03.888Z,4.20
2018-07-25T14:00:32.105Z,4.20
2018-07-25T14:03:00.302Z,4.35
2018-07-25T14:05:28.584Z,4.10
2018-07-25T14:07:56.775Z,4.22
2018-07-25T14:10:25.013Z,4.97
2018-07-25T14:12:53.209Z,4.17
2018-07-25T14:15:21.451Z,4.20
2018-07-25T14:17:49.676Z,4.08
2018-07-25T14:20:17.968Z,3.98
2018-07-25T14:22:46.223Z,4.40
2018-07-25T14:25:14.440Z,4.78
2018-07-25T14:27:42.665Z,4.75
2018-07-25T14:30:10.923Z,4.65
2018-07-25T14:32:39.056Z,4.78
2018-07-25T14:35:07.265Z,4.45
2018-07-25T14:37:35.481Z,4.10
2018-07-25T14:40:03.843Z,4.45
2018-07-25T14:42:31.989Z,4.50
2018-07-25T14:45:00.209Z,4.75
2018-07-25T14:47:28.564Z,5.22
2018-07-25T14:49:56.764Z,5.00
2018-07-25T14:52:25.048Z,5.25
2018-07-25T14:54:53.211Z,4.42
2018-07-25T14:57:21.420Z,4.83
2018-07-25T14:59:49.690Z,4.55
2018-07-25T15:02:17.900Z,4.25
2018-07-25T15:04:46.075Z,4.55
2018-07-25T15:07:14.280Z,4.05
2018-07-25T15:09:43.165Z,4.40
2018-07-25T15:12:11.373Z,3.60
2018-07-25T15:14:39.560Z,3.80
2018-07-25T15:17:07.756Z,3.65
2018-07-25T15:19:35.988Z,4.00
2018-07-25T15:22:04.172Z,3.60
2018-07-25T15:24:32.400Z,3.45
2018-07-25T15:27:00.920Z,3.58
2018-07-25T15:29:29.179Z,2.83
2018-07-25T15:31:57.395Z,3.45
2018-07-25T15:34:25.629Z,3.10
2018-07-25T15:36:54.173Z,2.83
2018-07-25T15:39:24.331Z,3.02
2018-07-25T15:41:53.364Z,3.27
2018-07-25T15:44:22.596Z,3.50
2018-07-25T15:46:50.854Z,3.02
2018-07-25T15:49:19.004Z,3.10
2018-07-25T15:51:47.271Z,3.15
2018-07-25T15:54:15.497Z,3.05
2018-07-25T15:56:43.731Z,3.40
2018-07-25T15:59:11.965Z,2.90
2018-07-25T16:01:40.192Z,3.70
2018-07-25T16:04:08.544Z,3.45
2018-07-25T16:06:36.891Z,3.10
2018-07-25T16:09:07.821Z,2.98
2018-07-25T16:11:36.057Z,2.92
2018-07-25T16:14:04.283Z,3.00
2018-07-25T16:16:32.512Z,3.15
2018-07-25T16:19:00.740Z,3.10
2018-07-25T16:21:28.989Z,3.00
2018-07-25T16:23:57.250Z,3.17
2018-07-25T16:26:25.477Z,3.12
2018-07-25T16:28:53.668Z,3.05
2018-07-25T16:31:21.954Z,2.90
2018-07-25T16:33:50.372Z,2.80
2018-07-25T16:36:18.636Z,2.58
2018-07-25T16:38:46.836Z,2.98
2018-07-25T16:41:15.089Z,3.10
2018-07-25T16:43:43.328Z,2.70
2018-07-25T16:46:11.568Z,2.90
2018-07-25T16:48:39.786Z,3.27
2018-07-25T16:51:08.041Z,2.77
2018-07-25T16:53:36.300Z,2.80
2018-07-25T16:56:04.798Z,2.90
2018-07-25T16:58:33.027Z,3.62
2018-07-25T17:01:01.292Z,3.00
2018-07-25T17:03:29.596Z,3.22
2018-07-25T17:05:57.532Z,3.67
2018-07-25T17:08:25.816Z,3.00
2018-07-25T17:10:54.066Z,3.35
2018-07-25T17:13:22.266Z,3.47
2018-07-25T17:15:51.315Z,3.27
2018-07-25T17:18:20.748Z,2.92
2018-07-25T17:20:50.267Z,3.10
2018-07-25T17:23:18.537Z,3.00
2018-07-25T17:25:46.817Z,3.10
2018-07-25T17:28:15.012Z,3.27
2018-07-25T17:30:43.929Z,3.08
2018-07-25T17:33:11.872Z,2.83
2018-07-25T17:35:40.093Z,2.87
2018-07-25T17:38:08.287Z,3.02
2018-07-25T17:40:36.575Z,3.35
2018-07-25T17:43:04.718Z,2.65
2018-07-25T17:45:32.940Z,3.00
2018-07-25T17:48:01.180Z,2.98
2018-07-25T17:50:29.384Z,3.25
2018-07-25T17:52:57.652Z,2.80
2018-07-25T17:55:25.865Z,3.20
2018-07-25T17:57:54.084Z,2.95
2018-07-25T18:00:22.296Z,3.05
2018-07-25T18:02:50.849Z,3.45
2018-07-25T18:05:19.040Z,3.10
2018-07-25T18:07:47.312Z,3.72
2018-07-25T18:10:15.540Z,2.95
2018-07-25T18:12:43.788Z,2.72
2018-07-25T18:15:12.024Z,3.22
2018-07-25T18:17:40.248Z,2.30
2018-07-25T18:20:09.244Z,2.30
2018-07-25T18:22:37.514Z,1.72
2018-07-25T18:25:06.056Z,2.10
2018-07-25T18:27:35.199Z,2.30
2018-07-25T18:30:03.223Z,2.00
2018-07-25T18:32:31.452Z,2.25
2018-07-25T18:35:00.215Z,2.17
2018-07-25T18:37:28.516Z,2.17
2018-07-25T18:39:56.741Z,2.12
2018-07-25T18:42:24.952Z,1.77
2018-07-25T18:44:53.351Z,2.07
2018-07-25T18:47:21.568Z,2.63
2018-07-25T18:49:49.787Z,2.80
2018-07-25T18:52:18.011Z,2.33
2018-07-25T18:54:46.244Z,2.73
2018-07-25T18:57:14.468Z,2.20
2018-07-25T18:59:42.436Z,2.17
2018-07-25T19:02:10.574Z,2.50
2018-07-25T19:04:38.895Z,2.00
2018-07-25T19:07:07.140Z,2.13
2018-07-25T19:09:35.292Z,1.87
2018-07-25T19:12:03.525Z,2.43
2018-07-25T19:14:37.161Z,2.13
2018-07-25T19:17:05.378Z,1.60
2018-07-25T19:19:33.590Z,2.33
2018-07-25T19:22:03.172Z,2.33
2018-07-25T19:24:31.401Z,1.97
2018-07-25T19:26:59.694Z,2.30
2018-07-25T19:29:27.926Z,2.10
2018-07-25T19:31:56.128Z,2.10
2018-07-25T19:34:24.348Z,2.20
2018-07-25T19:36:52.609Z,2.13
2018-07-25T19:39:20.866Z,2.30
2018-07-25T19:41:49.052Z,2.17
2018-07-25T19:44:17.275Z,2.40
2018-07-25T19:46:45.474Z,2.30
2018-07-25T19:49:13.760Z,2.40
2018-07-25T19:51:42.055Z,1.90
2018-07-25T19:54:10.297Z,2.40
2018-07-25T19:56:38.547Z,2.47
2018-07-25T19:59:06.924Z,1.93
2018-07-25T20:01:35.169Z,2.33
2018-07-25T20:04:03.373Z,2.90
2018-07-25T20:06:31.601Z,2.63
2018-07-25T20:08:59.796Z,3.43
2018-07-25T20:11:28.021Z,3.10
2018-07-25T20:14:01.811Z,3.20
2018-07-25T20:16:29.976Z,2.67
2018-07-25T20:18:58.177Z,2.87
2018-07-25T20:21:26.392Z,2.40
2018-07-25T20:23:54.677Z,2.60
2018-07-25T20:26:22.844Z,2.77
2018-07-25T20:28:51.053Z,2.53
2018-07-25T20:31:19.319Z,2.77
2018-07-25T20:33:47.472Z,2.43
2018-07-25T20:36:15.686Z,2.73
2018-07-25T20:38:43.968Z,2.53
2018-07-25T20:41:12.240Z,2.00
2018-07-25T20:43:40.433Z,2.53
2018-07-25T20:46:08.753Z,2.80
2018-07-25T20:48:36.991Z,2.53
2018-07-25T20:51:05.180Z,3.03
2018-07-25T20:53:33.415Z,2.23
2018-07-25T20:56:01.625Z,2.70
2018-07-25T20:58:29.836Z,3.03
2018-07-25T21:00:58.045Z,2.43
2018-07-25T21:03:26.269Z,2.87
2018-07-25T21:05:54.475Z,2.57
2018-07-25T21:08:22.682Z,2.50
2018-07-25T21:10:50.649Z,2.80
2018-07-25T21:13:18.843Z,2.67
2018-07-25T21:15:47.052Z,3.80
2018-07-25T21:18:15.257Z,3.17
2018-07-25T21:20:43.476Z,3.30
2018-07-25T21:23:11.680Z,3.80
2018-07-25T21:25:39.901Z,3.77
2018-07-25T21:28:08.104Z,3.50
2018-07-25T21:30:36.323Z,3.03
2018-07-25T21:33:04.577Z,3.10
2018-07-25T21:35:32.804Z,3.43
2018-07-25T21:38:00.996Z,3.60
2018-07-25T21:40:29.197Z,3.00
2018-07-25T21:42:57.442Z,2.90
2018-07-25T21:45:25.675Z,2.70
2018-07-25T21:47:53.881Z,2.87
2018-07-25T21:50:21.828Z,2.93
2018-07-25T21:52:50.046Z,3.00
2018-07-25T21:55:18.236Z,2.80
2018-07-25T21:57:46.461Z,2.63
2018-07-25T22:00:15.996Z,3.07
2018-07-25T22:02:45.632Z,3.03
2018-07-25T22:05:14.307Z,2.80
2018-07-25T22:07:43.040Z,3.47
2018-07-25T22:10:11.237Z,3.10
2018-07-25T22:12:40.125Z,3.17
2018-07-25T22:15:09.137Z,3.50
2018-07-25T22:17:37.700Z,3.07
2018-07-25T22:20:07.648Z,3.17
2018-07-25T22:22:35.848Z,3.33
2018-07-25T22:25:04.113Z,3.27
2018-07-25T22:27:32.320Z,3.40
2018-07-25T22:30:00.527Z,3.20
2018-07-25T22:32:28.732Z,3.43
2018-07-25T22:34:56.928Z,3.23
2018-07-25T22:37:25.152Z,3.57
2018-07-25T22:39:53.332Z,3.60
2018-07-25T22:42:21.539Z,3.07
2018-07-25T22:44:49.724Z,3.20
2018-07-25T22:47:17.935Z,3.43
2018-07-25T22:49:46.176Z,3.30
2018-07-25T22:52:14.405Z,3.23
2018-07-25T22:54:42.622Z,3.60
2018-07-25T22:57:10.831Z,3.70
2018-07-25T22:59:39.052Z,3.63
2018-07-25T23:02:07.252Z,4.10
2018-07-25T23:04:35.481Z,4.17
2018-07-25T23:07:04.076Z,4.70
2018-07-25T23:09:32.260Z,4.67
2018-07-25T23:12:00.515Z,4.07
2018-07-25T23:14:28.722Z,4.70
2018-07-25T23:16:56.916Z,5.17
2018-07-25T23:19:25.146Z,4.40
2018-07-25T23:21:53.365Z,4.50
2018-07-25T23:24:21.572Z,4.60
2018-07-25T23:26:50.490Z,4.57
2018-07-25T23:29:18.985Z,4.30
2018-07-25T23:31:47.989Z,4.87
2018-07-25T23:34:16.151Z,4.53
2018-07-25T23:36:44.344Z,4.60
2018-07-25T23:39:12.564Z,4.47
2018-07-25T23:41:40.757Z,5.00
2018-07-25T23:44:09.116Z,4.43
2018-07-25T23:46:37.739Z,5.40
2018-07-25T23:49:05.969Z,4.87
2018-07-25T23:51:35.116Z,5.23
2018-07-25T23:54:03.952Z,4.93
2018-07-25T23:56:32.172Z,4.77
2018-07-25T23:59:00.344Z,4.43
